createdAt,value
2017-11-24T00:00:17.127Z,78.80
2017-11-24T00:02:44.675Z,78.60
2017-11-24T00:05:12.140Z,78.50
2017-11-24T00:07:39.931Z,78.30
2017-11-24T00:10:07.408Z,78.10
2017-11-24T00:12:34.861Z,77.90
2017-11-24T00:15:02.308Z,77.80
2017-11-24T00:17:29.782Z,77.70
2017-11-24T00:19:57.267Z,77.60
2017-11-24T00:22:24.714Z,77.50
2017-11-24T00:24:52.197Z,77.30
2017-11-24T00:27:19.640Z,77.20
2017-11-24T00:29:47.102Z,77.10
2017-11-24T00:32:14.534Z,77.00
2017-11-24T00:34:42.010Z,76.80
2017-11-24T00:37:09.505Z,76.80
2017-11-24T00:39:37.065Z,77.00
2017-11-24T00:42:04.530Z,77.00
2017-11-24T00:44:32.751Z,77.10
2017-11-24T00:47:00.297Z,77.10
2017-11-24T00:49:27.743Z,77.30
2017-11-24T00:51:55.970Z,77.40
2017-11-24T00:54:23.717Z,77.20
2017-11-24T00:56:51.158Z,77.30
2017-11-24T00:59:18.693Z,77.20
2017-11-24T01:01:46.157Z,77.20
2017-11-24T01:04:13.995Z,77.10
2017-11-24T01:06:41.454Z,77.00
2017-11-24T01:09:08.945Z,77.00
2017-11-24T01:11:36.415Z,77.00
2017-11-24T01:14:03.949Z,77.00
2017-11-24T01:16:31.578Z,76.90
2017-11-24T01:18:59.165Z,76.80
2017-11-24T01:21:26.642Z,76.80
2017-11-24T01:23:54.233Z,76.90
2017-11-24T01:26:22.349Z,76.80
2017-11-24T01:28:49.782Z,77.10
2017-11-24T01:31:17.222Z,76.70
2017-11-24T01:33:44.686Z,76.80
2017-11-24T01:36:12.621Z,76.80
2017-11-24T01:38:40.096Z,76.90
2017-11-24T01:41:07.523Z,76.60
2017-11-24T01:43:34.963Z,76.40
2017-11-24T01:46:02.430Z,76.60
2017-11-24T01:48:29.875Z,76.70
2017-11-24T01:50:57.305Z,76.90
2017-11-24T01:53:24.761Z,76.90
2017-11-24T01:55:52.200Z,77.00
2017-11-24T01:58:19.667Z,77.10
2017-11-24T02:00:47.249Z,77.40
2017-11-24T02:03:14.677Z,77.60
2017-11-24T02:05:42.122Z,77.50
2017-11-24T02:08:09.629Z,77.50
2017-11-24T02:10:37.090Z,77.40
2017-11-24T02:13:04.958Z,77.40
2017-11-24T02:15:32.402Z,77.20
2017-11-24T02:18:00.290Z,77.30
2017-11-24T02:20:27.751Z,77.40
2017-11-24T02:22:55.223Z,77.80
2017-11-24T02:25:22.669Z,78.20
2017-11-24T02:27:50.141Z,78.10
2017-11-24T02:30:17.602Z,78.10
2017-11-24T02:32:45.050Z,78.10
2017-11-24T02:35:12.518Z,78.10
2017-11-24T02:37:39.959Z,78.00
2017-11-24T02:40:07.393Z,78.10
2017-11-24T02:42:34.830Z,78.00
2017-11-24T02:45:02.357Z,78.00
2017-11-24T02:47:29.837Z,77.70
2017-11-24T02:49:57.288Z,77.70
2017-11-24T02:52:24.725Z,77.50
2017-11-24T02:54:52.202Z,77.30
2017-11-24T02:57:19.670Z,77.30
2017-11-24T02:59:47.131Z,77.60
2017-11-24T03:02:14.679Z,77.80
2017-11-24T03:04:42.438Z,78.00
2017-11-24T03:07:09.881Z,78.30
2017-11-24T03:09:37.795Z,78.60
2017-11-24T03:12:05.243Z,79.10
2017-11-24T03:14:32.726Z,79.50
2017-11-24T03:17:00.195Z,79.80
2017-11-24T03:19:27.672Z,80.10
2017-11-24T03:21:55.509Z,80.20
2017-11-24T03:24:22.979Z,80.40
2017-11-24T03:26:50.411Z,80.50
2017-11-24T03:29:17.858Z,80.40
2017-11-24T03:31:45.365Z,80.50
2017-11-24T03:34:12.833Z,80.40
2017-11-24T03:36:40.274Z,80.20
2017-11-24T03:39:07.707Z,80.40
2017-11-24T03:41:35.203Z,80.60
2017-11-24T03:44:02.655Z,81.00
2017-11-24T03:46:30.118Z,81.10
2017-11-24T03:48:57.554Z,81.20
2017-11-24T03:51:25.047Z,81.20
2017-11-24T03:53:52.505Z,81.10
2017-11-24T03:56:19.937Z,81.10
2017-11-24T03:58:47.412Z,81.00
2017-11-24T04:01:15.416Z,81.00
2017-11-24T04:03:42.836Z,81.00
2017-11-24T04:06:10.281Z,80.80
2017-11-24T04:08:37.718Z,80.60
2017-11-24T04:11:05.350Z,80.30
2017-11-24T04:13:33.017Z,80.00
2017-11-24T04:16:00.474Z,79.90
2017-11-24T04:18:27.923Z,79.80
2017-11-24T04:20:55.350Z,79.60
2017-11-24T04:23:22.822Z,79.50
2017-11-24T04:25:50.309Z,79.40
2017-11-24T04:28:17.751Z,79.60
2017-11-24T04:30:45.210Z,79.60
2017-11-24T04:33:12.645Z,79.50
2017-11-24T04:35:40.118Z,79.40
2017-11-24T04:38:07.646Z,79.30
2017-11-24T04:40:35.082Z,79.20
2017-11-24T04:43:02.543Z,79.00
2017-11-24T04:45:29.979Z,78.90
2017-11-24T04:47:57.442Z,78.60
2017-11-24T04:50:24.884Z,78.30
2017-11-24T04:52:52.322Z,78.20
2017-11-24T04:55:19.765Z,78.30
2017-11-24T04:57:47.197Z,78.30
2017-11-24T05:00:14.662Z,78.50
2017-11-24T05:02:42.239Z,78.50
2017-11-24T05:05:09.671Z,78.80
2017-11-24T05:07:37.199Z,78.90
2017-11-24T05:10:04.638Z,79.10
2017-11-24T05:12:32.111Z,79.40
2017-11-24T05:14:59.550Z,79.70
2017-11-24T05:17:27.009Z,79.90
2017-11-24T05:19:54.458Z,80.30
2017-11-24T05:22:21.939Z,80.70
2017-11-24T05:24:49.402Z,81.10
2017-11-24T05:27:16.859Z,81.40
2017-11-24T05:29:44.306Z,81.40
2017-11-24T05:32:11.753Z,82.30
2017-11-24T05:34:39.178Z,84.00
2017-11-24T05:37:06.697Z,85.30
2017-11-24T05:39:34.139Z,85.80
2017-11-24T05:42:01.646Z,86.20
2017-11-24T05:44:29.491Z,87.40
2017-11-24T05:46:56.956Z,87.00
2017-11-24T05:49:24.422Z,87.40
2017-11-24T05:51:51.866Z,87.40
2017-11-24T05:54:19.368Z,87.20
2017-11-24T05:56:46.895Z,87.20
2017-11-24T05:59:14.325Z,87.10
2017-11-24T06:01:41.811Z,86.90
2017-11-24T06:04:09.272Z,86.80
2017-11-24T06:06:36.706Z,86.60
2017-11-24T06:09:04.166Z,86.20
2017-11-24T06:11:31.962Z,86.10
2017-11-24T06:13:59.445Z,85.90
2017-11-24T06:16:26.883Z,85.40
2017-11-24T06:18:54.369Z,84.90
2017-11-24T06:21:21.825Z,84.10
2017-11-24T06:23:49.276Z,84.10
2017-11-24T06:26:16.748Z,83.70
2017-11-24T06:28:44.185Z,83.70
2017-11-24T06:31:12.049Z,83.30
2017-11-24T06:33:39.503Z,82.80
2017-11-24T06:36:07.011Z,82.40
2017-11-24T06:38:34.583Z,83.30
2017-11-24T06:41:02.150Z,82.50
2017-11-24T06:43:29.574Z,82.40
2017-11-24T06:45:57.255Z,82.30
2017-11-24T06:48:24.690Z,82.50
2017-11-24T06:50:52.238Z,83.40
2017-11-24T06:53:20.055Z,84.20
2017-11-24T06:55:47.922Z,84.60
2017-11-24T06:58:15.424Z,84.70
2017-11-24T07:00:43.262Z,85.00
2017-11-24T07:03:10.724Z,85.50
2017-11-24T07:05:38.165Z,85.60
2017-11-24T07:08:05.603Z,85.80
2017-11-24T07:10:33.119Z,86.00
2017-11-24T07:13:00.551Z,86.10
2017-11-24T07:15:28.022Z,86.20
2017-11-24T07:17:55.465Z,86.00
2017-11-24T07:20:22.957Z,85.80
2017-11-24T07:22:50.417Z,85.60
2017-11-24T07:25:17.869Z,85.60
2017-11-24T07:27:45.337Z,85.50
2017-11-24T07:30:12.778Z,85.50
2017-11-24T07:32:40.265Z,85.50
2017-11-24T07:35:07.746Z,85.40
2017-11-24T07:37:35.586Z,85.20
2017-11-24T07:40:03.068Z,85.10
2017-11-24T07:42:30.522Z,84.90
2017-11-24T07:44:57.957Z,84.70
2017-11-24T07:47:25.448Z,84.80
2017-11-24T07:49:52.916Z,84.60
2017-11-24T07:52:20.346Z,84.50
2017-11-24T07:54:48.226Z,84.40
2017-11-24T07:57:15.685Z,84.10
2017-11-24T07:59:43.162Z,83.70
2017-11-24T08:02:10.618Z,83.50
2017-11-24T08:04:38.110Z,82.80
2017-11-24T08:07:05.942Z,82.40
2017-11-24T08:09:34.232Z,81.80
2017-11-24T08:12:01.683Z,81.40
2017-11-24T08:14:29.134Z,81.10
2017-11-24T08:16:56.594Z,80.90
2017-11-24T08:19:24.159Z,80.80
2017-11-24T08:21:51.694Z,81.00
2017-11-24T08:24:19.129Z,80.90
2017-11-24T08:26:46.577Z,80.80
2017-11-24T08:29:14.026Z,81.00
2017-11-24T08:31:41.469Z,80.20
2017-11-24T08:34:09.244Z,79.00
2017-11-24T08:36:36.691Z,78.10
2017-11-24T08:39:04.124Z,77.90
2017-11-24T08:41:31.631Z,77.30
2017-11-24T08:43:59.506Z,77.40
2017-11-24T08:46:32.634Z,77.30
2017-11-24T08:49:05.667Z,76.80
2017-11-24T08:51:33.394Z,76.60
2017-11-24T08:54:01.231Z,76.60
2017-11-24T08:56:29.108Z,76.40
2017-11-24T08:58:56.557Z,76.60
2017-11-24T09:01:24.108Z,76.30
2017-11-24T09:03:51.651Z,76.30
2017-11-24T09:06:19.293Z,77.30
2017-11-24T09:08:46.736Z,76.20
2017-11-24T09:11:14.299Z,76.10
2017-11-24T09:13:41.742Z,75.80
2017-11-24T09:16:09.214Z,75.20
2017-11-24T09:18:36.669Z,75.40
2017-11-24T09:21:04.146Z,75.60
2017-11-24T09:23:31.600Z,75.50
2017-11-24T09:25:59.036Z,75.40
2017-11-24T09:28:26.518Z,75.40
2017-11-24T09:30:53.937Z,75.10
2017-11-24T09:33:21.380Z,75.20
2017-11-24T09:35:48.844Z,75.20
2017-11-24T09:38:16.273Z,75.20
2017-11-24T09:40:43.705Z,74.80
2017-11-24T09:43:11.156Z,75.00
2017-11-24T09:45:38.583Z,74.70
2017-11-24T09:48:06.055Z,74.70
2017-11-24T09:50:33.476Z,74.40
2017-11-24T09:53:01.086Z,74.40
2017-11-24T09:55:28.943Z,74.20
2017-11-24T09:57:56.542Z,74.30
2017-11-24T10:00:24.001Z,74.50
2017-11-24T10:02:51.431Z,74.20
2017-11-24T10:05:19.250Z,74.50
2017-11-24T10:07:47.116Z,74.30
2017-11-24T10:10:14.548Z,74.70
2017-11-24T10:12:42.007Z,74.50
2017-11-24T10:15:09.445Z,74.80
2017-11-24T10:17:37.006Z,75.20
2017-11-24T10:20:04.449Z,75.40
2017-11-24T10:22:37.606Z,76.10
2017-11-24T10:25:05.214Z,76.20
2017-11-24T10:27:32.754Z,76.60
2017-11-24T10:30:00.531Z,76.80
2017-11-24T10:32:27.994Z,77.20
2017-11-24T10:34:55.462Z,77.40
2017-11-24T10:37:22.902Z,77.20
2017-11-24T10:39:50.378Z,77.50
2017-11-24T10:42:17.829Z,77.40
2017-11-24T10:44:45.375Z,77.50
2017-11-24T10:47:13.159Z,77.50
2017-11-24T10:49:40.594Z,77.70
2017-11-24T10:52:08.118Z,77.90
2017-11-24T10:54:35.565Z,77.50
2017-11-24T10:57:03.014Z,77.20
2017-11-24T10:59:30.537Z,77.50
2017-11-24T11:01:58.339Z,77.40
2017-11-24T11:04:25.779Z,77.20
2017-11-24T11:06:53.294Z,77.60
2017-11-24T11:09:20.738Z,77.50
2017-11-24T11:11:48.597Z,77.40
2017-11-24T11:14:16.074Z,77.50
2017-11-24T11:16:43.540Z,77.70
2017-11-24T11:19:10.984Z,77.40
2017-11-24T11:21:38.478Z,77.70
2017-11-24T11:24:05.939Z,77.10
2017-11-24T11:26:33.371Z,77.50
2017-11-24T11:29:00.821Z,77.40
2017-11-24T11:31:28.385Z,77.20
2017-11-24T11:33:55.821Z,77.00
2017-11-24T11:36:23.627Z,77.20
2017-11-24T11:38:51.069Z,77.00
2017-11-24T11:41:18.542Z,77.10
2017-11-24T11:43:46.075Z,76.90
2017-11-24T11:46:13.502Z,77.20
2017-11-24T11:48:41.331Z,76.60
2017-11-24T11:51:08.808Z,76.70
2017-11-24T11:53:36.258Z,76.80
2017-11-24T11:56:04.130Z,77.10
2017-11-24T11:58:31.582Z,77.30
2017-11-24T12:00:59.068Z,77.20
2017-11-24T12:03:26.523Z,77.00
2017-11-24T12:05:53.974Z,77.10
2017-11-24T12:08:21.420Z,77.20
2017-11-24T12:10:48.890Z,77.20
2017-11-24T12:13:16.334Z,77.50
2017-11-24T12:15:43.837Z,77.80
2017-11-24T12:18:11.310Z,77.20
2017-11-24T12:20:38.753Z,76.70
2017-11-24T12:23:06.631Z,76.90
2017-11-24T12:25:34.095Z,77.20
2017-11-24T12:28:02.103Z,77.00
2017-11-24T12:30:30.641Z,77.60
2017-11-24T12:32:58.512Z,77.60
2017-11-24T12:35:25.975Z,77.40
2017-11-24T12:37:53.442Z,77.50
2017-11-24T12:40:20.980Z,77.20
2017-11-24T12:42:48.442Z,77.20
2017-11-24T12:45:16.229Z,77.00
2017-11-24T12:47:43.690Z,77.20
2017-11-24T12:50:11.167Z,76.90
2017-11-24T12:52:39.022Z,77.20
2017-11-24T12:55:06.480Z,77.30
2017-11-24T12:57:33.958Z,77.10
2017-11-24T13:00:01.418Z,77.20
2017-11-24T13:02:28.870Z,77.20
2017-11-24T13:04:56.350Z,77.20
2017-11-24T13:07:23.904Z,77.00
2017-11-24T13:09:51.464Z,77.20
2017-11-24T13:12:19.541Z,77.40
2017-11-24T13:14:47.084Z,77.20
2017-11-24T13:17:14.526Z,77.40
2017-11-24T13:19:42.243Z,77.60
2017-11-24T13:22:09.983Z,77.50
2017-11-24T13:24:37.648Z,77.70
2017-11-24T13:27:05.080Z,78.10
2017-11-24T13:29:32.509Z,78.20
2017-11-24T13:32:00.086Z,78.30
2017-11-24T13:34:27.533Z,78.30
2017-11-24T13:36:55.380Z,78.50
2017-11-24T13:39:22.868Z,78.50
2017-11-24T13:41:50.313Z,78.70
2017-11-24T13:44:17.780Z,78.90
2017-11-24T13:46:45.225Z,79.00
2017-11-24T13:49:12.658Z,79.00
2017-11-24T13:51:40.566Z,79.00
2017-11-24T13:54:08.031Z,79.10
2017-11-24T13:56:35.513Z,79.10
2017-11-24T13:59:02.942Z,79.30
2017-11-24T14:01:30.410Z,79.20
2017-11-24T14:03:57.867Z,79.30
2017-11-24T14:06:25.419Z,79.40
2017-11-24T14:08:53.011Z,79.40
2017-11-24T14:11:20.446Z,79.60
2017-11-24T14:13:48.126Z,79.70
2017-11-24T14:16:15.605Z,79.90
2017-11-24T14:18:43.063Z,80.10
2017-11-24T14:21:10.528Z,80.10
2017-11-24T14:23:37.962Z,80.20
2017-11-24T14:26:05.454Z,80.20
2017-11-24T14:28:32.931Z,80.20
2017-11-24T14:31:00.672Z,80.30
2017-11-24T14:33:28.123Z,81.20
2017-11-24T14:35:55.686Z,80.60
2017-11-24T14:38:23.555Z,80.70
2017-11-24T14:40:51.437Z,80.80
2017-11-24T14:43:18.980Z,80.90
2017-11-24T14:45:46.770Z,81.10
2017-11-24T14:48:26.081Z,81.30
2017-11-24T14:50:53.572Z,81.50
2017-11-24T14:53:21.037Z,81.60
2017-11-24T14:55:48.495Z,81.70
2017-11-24T14:58:15.927Z,81.80
2017-11-24T15:00:43.376Z,82.00
2017-11-24T15:03:10.806Z,82.80
2017-11-24T15:05:38.386Z,82.10
2017-11-24T15:08:05.828Z,82.20
2017-11-24T15:10:33.273Z,82.40
2017-11-24T15:13:00.814Z,82.50
2017-11-24T15:15:28.250Z,82.50
2017-11-24T15:17:55.902Z,82.70
2017-11-24T15:20:23.342Z,82.90
2017-11-24T15:22:50.986Z,83.00
2017-11-24T15:25:18.431Z,83.40
2017-11-24T15:27:45.896Z,83.80
2017-11-24T15:30:13.351Z,81.80
2017-11-24T15:32:40.784Z,82.30
2017-11-24T15:35:08.306Z,83.40
2017-11-24T15:37:35.765Z,84.70
2017-11-24T15:40:03.213Z,85.40
2017-11-24T15:42:30.709Z,86.50
2017-11-24T15:44:58.529Z,86.90
2017-11-24T15:47:25.977Z,87.00
2017-11-24T15:49:53.473Z,87.70
2017-11-24T15:52:20.941Z,87.90
2017-11-24T15:54:48.389Z,88.10
2017-11-24T15:57:15.842Z,88.10
2017-11-24T15:59:43.706Z,88.00
2017-11-24T16:02:11.178Z,88.00
2017-11-24T16:04:38.642Z,88.10
2017-11-24T16:07:06.197Z,87.90
2017-11-24T16:09:33.735Z,88.10
2017-11-24T16:12:01.539Z,88.10
2017-11-24T16:14:28.962Z,88.00
2017-11-24T16:16:56.398Z,87.90
2017-11-24T16:19:23.866Z,87.70
2017-11-24T16:21:51.306Z,87.70
2017-11-24T16:24:18.750Z,87.30
2017-11-24T16:26:46.281Z,87.40
2017-11-24T16:29:13.717Z,87.40
2017-11-24T16:31:41.531Z,87.10
2017-11-24T16:34:09.015Z,86.80
2017-11-24T16:36:36.456Z,86.40
2017-11-24T16:39:03.935Z,86.00
2017-11-24T16:41:31.371Z,86.40
2017-11-24T16:43:58.811Z,86.70
2017-11-24T16:46:26.270Z,87.00
2017-11-24T16:48:53.954Z,87.30
2017-11-24T16:51:22.192Z,88.30
2017-11-24T16:53:50.389Z,88.40
2017-11-24T16:56:17.830Z,88.30
2017-11-24T16:58:45.654Z,88.30
2017-11-24T17:01:13.128Z,88.00
2017-11-24T17:03:40.560Z,89.50
2017-11-24T17:06:08.030Z,89.60
2017-11-24T17:08:35.525Z,90.10
2017-11-24T17:11:02.983Z,90.00
2017-11-24T17:13:30.434Z,89.60
2017-11-24T17:15:57.873Z,89.70
2017-11-24T17:18:25.361Z,90.20
2017-11-24T17:20:52.831Z,89.70
2017-11-24T17:23:20.273Z,89.80
2017-11-24T17:25:47.734Z,90.00
2017-11-24T17:28:15.170Z,90.20
2017-11-24T17:30:42.602Z,90.40
2017-11-24T17:33:10.113Z,90.50
2017-11-24T17:35:37.560Z,90.50
2017-11-24T17:38:05.064Z,90.70
2017-11-24T17:40:32.623Z,90.80
2017-11-24T17:43:00.048Z,90.80
2017-11-24T17:45:27.494Z,90.80
2017-11-24T17:47:55.294Z,90.90
2017-11-24T17:50:22.845Z,90.90
2017-11-24T17:52:50.266Z,90.90
2017-11-24T17:55:17.708Z,90.90
2017-11-24T17:57:45.155Z,90.80
2017-11-24T18:00:12.606Z,90.90
2017-11-24T18:02:40.056Z,90.80
2017-11-24T18:05:07.613Z,91.30
2017-11-24T18:07:35.077Z,91.30
2017-11-24T18:10:02.494Z,90.90
2017-11-24T18:12:29.930Z,90.90
2017-11-24T18:14:57.896Z,91.00
2017-11-24T18:17:25.654Z,91.00
2017-11-24T18:19:53.125Z,91.10
2017-11-24T18:22:20.578Z,91.10
2017-11-24T18:24:48.026Z,91.10
2017-11-24T18:27:15.486Z,91.00
2017-11-24T18:29:42.954Z,90.90
2017-11-24T18:32:10.398Z,90.80
2017-11-24T18:34:37.863Z,90.80
2017-11-24T18:37:05.301Z,91.20
2017-11-24T18:39:32.819Z,91.40
2017-11-24T18:42:00.287Z,91.60
2017-11-24T18:44:27.721Z,91.70
2017-11-24T18:46:55.194Z,91.80
2017-11-24T18:49:22.651Z,91.80
2017-11-24T18:51:50.122Z,91.80
2017-11-24T18:54:17.652Z,91.70
2017-11-24T18:56:45.073Z,91.60
2017-11-24T18:59:12.927Z,91.60
2017-11-24T19:01:40.396Z,91.60
2017-11-24T19:04:07.825Z,91.70
2017-11-24T19:06:35.298Z,91.70
2017-11-24T19:09:02.743Z,91.70
2017-11-24T19:11:30.179Z,91.70
2017-11-24T19:13:57.635Z,91.70
2017-11-24T19:16:25.129Z,91.70
2017-11-24T19:18:52.599Z,91.70
2017-11-24T19:21:20.030Z,91.70
2017-11-24T19:23:47.501Z,91.70
2017-11-24T19:26:14.942Z,91.60
2017-11-24T19:28:42.381Z,91.70
2017-11-24T19:31:09.851Z,91.60
2017-11-24T19:33:37.282Z,91.50
2017-11-24T19:36:04.715Z,91.60
2017-11-24T19:38:32.318Z,91.50
2017-11-24T19:40:59.769Z,91.50
2017-11-24T19:43:27.246Z,91.70
2017-11-24T19:45:54.674Z,91.70
2017-11-24T19:48:22.555Z,91.40
2017-11-24T19:50:50.002Z,91.40
2017-11-24T19:53:17.466Z,91.50
2017-11-24T19:55:44.936Z,91.20
2017-11-24T19:58:12.369Z,91.30
2017-11-24T20:00:39.814Z,91.30
2017-11-24T20:03:07.262Z,91.50
2017-11-24T20:05:34.695Z,91.60
2017-11-24T20:08:03.065Z,91.80
2017-11-24T20:10:30.504Z,91.80
2017-11-24T20:12:57.973Z,91.60
2017-11-24T20:15:25.435Z,91.70
2017-11-24T20:17:52.912Z,91.90
2017-11-24T20:20:20.775Z,92.20
2017-11-24T20:22:48.242Z,92.40
2017-11-24T20:25:15.707Z,92.50
2017-11-24T20:27:43.198Z,92.50
2017-11-24T20:30:10.635Z,92.50
2017-11-24T20:32:38.073Z,92.50
2017-11-24T20:35:05.528Z,92.50
2017-11-24T20:37:33.035Z,92.50
2017-11-24T20:40:00.489Z,92.40
2017-11-24T20:42:27.927Z,92.50
2017-11-24T20:44:55.789Z,92.50
2017-11-24T20:47:23.292Z,92.50
2017-11-24T20:49:51.130Z,92.50
2017-11-24T20:52:18.998Z,92.60
2017-11-24T20:54:46.875Z,92.50
2017-11-24T20:57:14.745Z,92.60
2017-11-24T20:59:42.193Z,92.80
2017-11-24T21:02:09.629Z,92.90
2017-11-24T21:04:37.130Z,92.80
2017-11-24T21:07:04.572Z,92.90
2017-11-24T21:09:32.006Z,92.90
2017-11-24T21:11:59.463Z,92.80
2017-11-24T21:14:26.900Z,92.90
2017-11-24T21:16:55.292Z,92.90
2017-11-24T21:19:22.717Z,92.90
2017-11-24T21:21:50.599Z,92.70
2017-11-24T21:24:18.042Z,92.50
2017-11-24T21:26:45.489Z,92.50
2017-11-24T21:29:13.075Z,92.90
2017-11-24T21:31:40.848Z,93.20
2017-11-24T21:34:08.717Z,93.30
2017-11-24T21:36:36.175Z,93.40
2017-11-24T21:39:03.602Z,93.40
2017-11-24T21:41:31.083Z,93.50
2017-11-24T21:43:58.977Z,93.60
2017-11-24T21:46:26.415Z,93.70
2017-11-24T21:48:53.859Z,93.70
2017-11-24T21:51:21.356Z,93.70
2017-11-24T21:53:48.832Z,93.80
2017-11-24T21:56:16.299Z,93.80
2017-11-24T21:58:43.734Z,93.80
2017-11-24T22:01:11.187Z,93.80
2017-11-24T22:03:38.631Z,93.70
2017-11-24T22:06:06.240Z,93.70
2017-11-24T22:08:33.672Z,93.80
2017-11-24T22:11:01.114Z,93.90
2017-11-24T22:13:28.567Z,93.80
2017-11-24T22:15:56.386Z,93.80
2017-11-24T22:18:23.862Z,93.80
2017-11-24T22:20:51.285Z,93.60
2017-11-24T22:23:18.737Z,93.50
2017-11-24T22:25:46.233Z,93.50
2017-11-24T22:28:13.685Z,93.40
2017-11-24T22:30:41.160Z,93.50
2017-11-24T22:33:08.703Z,93.70
2017-11-24T22:35:36.147Z,93.70
2017-11-24T22:38:03.598Z,93.80
2017-11-24T22:40:31.034Z,93.80
2017-11-24T22:42:58.521Z,93.70
2017-11-24T22:45:26.329Z,93.80
2017-11-24T22:47:53.873Z,94.00
2017-11-24T22:50:21.336Z,94.40
2017-11-24T22:52:48.759Z,94.20
2017-11-24T22:55:16.226Z,94.20
2017-11-24T22:57:43.676Z,94.20
2017-11-24T23:00:11.322Z,94.10
2017-11-24T23:02:38.774Z,94.00
2017-11-24T23:05:06.387Z,94.30
2017-11-24T23:07:33.861Z,94.40
2017-11-24T23:10:01.365Z,94.50
2017-11-24T23:12:28.798Z,94.70
2017-11-24T23:14:56.302Z,94.80
2017-11-24T23:17:24.142Z,95.10
2017-11-24T23:19:51.646Z,95.20
2017-11-24T23:22:19.078Z,95.20
2017-11-24T23:24:46.938Z,95.20
2017-11-24T23:27:14.802Z,95.10
2017-11-24T23:29:42.243Z,95.10
2017-11-24T23:32:09.822Z,95.00
2017-11-24T23:34:37.273Z,94.90
2017-11-24T23:37:04.706Z,95.00
2017-11-24T23:39:32.517Z,95.00
2017-11-24T23:41:59.951Z,94.80
2017-11-24T23:44:27.729Z,94.80
2017-11-24T23:46:55.178Z,94.90
2017-11-24T23:49:22.793Z,94.90
2017-11-24T23:51:50.646Z,95.40
2017-11-24T23:54:18.529Z,95.00
2017-11-24T23:56:45.999Z,95.00
2017-11-24T23:59:13.862Z,95.10
